Time;durP1;ratioP1;P1;durP2;ratioP2;P2;SDS_P1;SDS_P2;PMS_P1;PMS_P2;Temp;Humidity;BMP_temperature;BMP_pressure;BME280_temperature;BME280_humidity;BME280_pressure;Samples;Min_cycle;Max_cycle;Signal;HPM_P1;HPM_P2
2021/09/19 00:01:29;;;;;;;;;0.00;0.00;;;;;19.02;66.27;100788.75;5048874;28;45252;-87
2021/09/19 00:07:37;;;;;;;;;0.00;0.00;;;;;18.79;66.04;100735.69;5031868;28;46274;-88
2021/09/19 00:10:10;;;;;;;;;0.00;0.00;;;;;18.27;66.26;100640.34;5059915;28;45284;-87
2021/09/19 00:13:00;;;;;;;;;0.00;0.00;;;;;18.71;65.67;100709.53;5045183;28;45307;-88
2021/09/19 00:15:43;;;;;;;;;0.00;0.00;;;;;19.04;65.82;100756.16;5062181;28;45597;-86
2021/09/19 00:18:17;;;;;;;;;0.25;0.00;;;;;18.70;65.55;100688.47;5037407;28;47189;-88
2021/09/19 00:20:54;;;;;;;;;0.00;0.00;;;;;19.10;65.65;100748.09;5044200;28;45307;-88
2021/09/19 00:24:39;;;;;;;;;0.00;0.00;;;;;19.36;65.97;100799.28;5045698;28;45444;-87
2021/09/19 00:27:14;;;;;;;;;0.00;0.00;;;;;19.30;65.94;100796.84;5036623;28;45342;-87
2021/09/19 00:29:42;;;;;;;;;0.00;0.00;;;;;18.08;65.84;100607.44;5018066;28;47761;-88
2021/09/19 00:32:13;;;;;;;;;0.00;0.00;;;;;18.20;65.78;100615.94;5012834;28;45487;-88
2021/09/19 00:34:39;;;;;;;;;0.00;0.00;;;;;18.93;65.61;100742.38;5022890;28;45368;-88
2021/09/19 00:40:25;;;;;;;;;0.00;0.00;;;;;18.02;65.63;100599.66;5041657;28;45709;-89
2021/09/19 00:43:55;;;;;;;;;0.00;0.00;;;;;18.60;66.06;100685.22;5025280;28;45391;-87
2021/09/19 00:46:35;;;;;;;;;0.00;0.00;;;;;19.27;66.31;100796.03;4986856;28;45703;-88
2021/09/19 00:49:04;;;;;;;;;0.00;0.00;;;;;18.72;66.02;100703.34;5006086;28;45411;-87
2021/09/19 00:51:32;;;;;;;;;0.00;0.00;;;;;18.52;65.89;100681.88;5040293;28;46423;-86
2021/09/19 00:54:03;;;;;;;;;0.00;0.00;;;;;19.16;66.32;100791.03;5045962;28;45423;-87
2021/09/19 00:56:34;;;;;;;;;0.00;0.00;;;;;18.84;66.10;100719.75;5046522;28;45372;-88
2021/09/19 00:59:02;;;;;;;;;0.00;0.00;;;;;19.28;66.63;100796.00;5046168;28;45617;-85
2021/09/19 01:01:28;;;;;;;;;0.00;0.00;;;;;18.58;66.15;100665.91;5058822;28;45370;-87
2021/09/19 01:03:59;;;;;;;;;0.00;0.00;;;;;19.35;65.87;100784.38;5027563;28;45248;-87
2021/09/19 01:06:25;;;;;;;;;0.25;0.25;;;;;18.95;66.02;100727.38;5035452;28;45362;-84
2021/09/19 01:08:54;;;;;;;;;0.00;0.00;;;;;18.60;65.77;100665.00;5046355;28;45476;-87
2021/09/19 01:11:49;;;;;;;;;0.00;0.00;;;;;18.83;66.19;100710.09;5036284;28;47447;-86
2021/09/19 01:14:16;;;;;;;;;0.00;0.00;;;;;17.99;66.31;100589.22;5024719;28;45562;-86
2021/09/19 01:16:45;;;;;;;;;1.00;0.75;;;;;18.05;66.33;100604.88;5033199;28;45286;-87
2021/09/19 01:19:20;;;;;;;;;0.00;0.00;;;;;18.54;66.87;100693.28;5039073;28;45512;-86
2021/09/19 01:21:48;;;;;;;;;0.00;0.00;;;;;18.68;66.46;100714.03;5056770;28;46562;-87
2021/09/19 01:24:20;;;;;;;;;0.00;0.00;;;;;19.10;66.96;100798.22;5025236;28;45234;-88
2021/09/19 01:26:49;;;;;;;;;0.00;0.00;;;;;18.45;66.76;100681.19;5044437;28;45345;-86
2021/09/19 01:32:23;;;;;;;;;;;;;;;;;;;;;
2021/09/19 01:35:08;;;;;;;;;0.00;0.00;;;;;18.82;67.29;100777.81;4989439;28;45522;-87
2021/09/19 01:37:42;;;;;;;;;0.00;0.00;;;;;17.54;67.37;100566.56;5033919;28;45325;-89
2021/09/19 01:40:39;;;;;;;;;0.00;0.00;;;;;18.74;67.38;100772.72;5061616;28;45459;-91
2021/09/19 01:43:11;;;;;;;;;0.00;0.00;;;;;17.50;67.93;100564.91;5043385;28;46194;-86
2021/09/19 01:45:42;;;;;;;;;0.00;0.00;;;;;18.65;68.20;100762.41;5045947;28;45229;-87
2021/09/19 01:48:08;;;;;;;;;1.25;0.00;;;;;18.17;67.66;100666.06;5026143;28;45255;-86
2021/09/19 01:50:43;;;;;;;;;2.00;0.00;;;;;18.04;67.57;100644.41;5045875;28;45249;-83
2021/09/19 01:53:12;;;;;;;;;0.00;0.00;;;;;18.33;67.57;100695.53;5026651;28;47812;-85
2021/09/19 01:55:45;;;;;;;;;0.00;0.00;;;;;18.74;67.99;100777.13;5042692;28;45268;-85
2021/09/19 01:58:10;;;;;;;;;0.00;0.00;;;;;18.72;67.75;100771.03;5036147;28;45270;-86
2021/09/19 02:01:09;;;;;;;;;;;;;;;;;;;;;
2021/09/19 02:07:43;;;;;;;;;0.00;0.00;;;;;18.89;67.65;100778.50;5060448;28;45478;-88
2021/09/19 02:10:14;;;;;;;;;0.00;0.00;;;;;18.23;67.13;100653.59;4990268;28;45220;-85
2021/09/19 02:12:57;;;;;;;;;0.00;0.00;;;;;18.44;67.35;100676.84;5057774;28;45495;-89
2021/09/19 02:19:03;;;;;;;;;1.50;0.00;;;;;17.71;67.69;100581.97;5020692;28;45304;-87
2021/09/19 02:21:31;;;;;;;;;1.00;0.00;;;;;18.26;67.56;100676.41;4996043;28;45204;-88
2021/09/19 02:24:00;;;;;;;;;0.00;0.00;;;;;17.94;68.08;100639.34;5055990;28;45314;-89
2021/09/19 02:26:34;;;;;;;;;0.00;0.00;;;;;17.96;68.37;100649.84;5061706;28;45540;-87
2021/09/19 02:29:00;;;;;;;;;0.75;0.00;;;;;17.53;68.25;100575.38;5050429;28;45418;-89
2021/09/19 02:31:25;;;;;;;;;0.00;0.00;;;;;18.35;68.56;100720.09;5070557;28;45521;-89
2021/09/19 02:33:50;;;;;;;;;0.50;0.00;;;;;18.44;68.97;100738.28;5065034;28;45311;-87
2021/09/19 02:36:16;;;;;;;;;0.00;0.00;;;;;18.09;68.62;100682.03;5056468;28;47171;-87
2021/09/19 02:38:41;;;;;;;;;0.00;0.00;;;;;17.51;68.92;100592.94;5070405;28;45464;-87
2021/09/19 02:41:06;;;;;;;;;1.00;1.00;;;;;17.98;68.54;100666.50;5078787;28;44845;-87
2021/09/19 02:43:32;;;;;;;;;0.00;0.00;;;;;18.25;68.70;100719.44;5074015;27;44795;-87
2021/09/19 02:45:57;;;;;;;;;0.00;0.00;;;;;18.49;68.58;100751.38;5074276;28;47456;-89
2021/09/19 02:48:22;;;;;;;;;0.25;0.00;;;;;17.90;68.66;100637.69;5056022;28;45432;-91
2021/09/19 02:50:48;;;;;;;;;0.00;0.00;;;;;17.77;68.46;100618.69;5051174;28;45232;-87
2021/09/19 02:53:14;;;;;;;;;0.00;0.00;;;;;17.95;68.66;100629.69;5048053;28;45333;-85
2021/09/19 02:55:39;;;;;;;;;0.00;0.00;;;;;18.07;69.10;100658.34;5056755;28;46938;-88
2021/09/19 02:58:05;;;;;;;;;0.00;0.00;;;;;18.33;68.61;100695.53;5041572;28;45288;-88
2021/09/19 03:00:31;;;;;;;;;0.00;0.00;;;;;18.15;69.05;100660.84;5050566;28;45286;-88
2021/09/19 03:02:57;;;;;;;;;0.00;0.00;;;;;18.29;68.83;100672.81;5068429;28;45481;-87
2021/09/19 03:05:22;;;;;;;;;0.00;0.00;;;;;17.67;69.08;100581.19;5062754;28;45631;-86
2021/09/19 03:07:47;;;;;;;;;0.00;0.00;;;;;18.41;69.13;100712.00;5064556;28;46033;-89
2021/09/19 03:10:14;;;;;;;;;0.00;0.00;;;;;18.08;68.92;100659.22;5064833;28;45282;-89
2021/09/19 03:12:41;;;;;;;;;1.00;0.00;;;;;18.24;68.77;100686.09;5065251;28;45329;-84
2021/09/19 03:15:08;;;;;;;;;0.00;0.00;;;;;18.14;69.28;100674.03;5047680;28;46448;-86
2021/09/19 03:17:33;;;;;;;;;3.00;0.00;;;;;17.45;69.27;100578.16;5065972;28;45316;-87
2021/09/19 03:19:59;;;;;;;;;0.00;0.00;;;;;17.39;69.32;100579.19;5048195;28;45269;-86
2021/09/19 03:22:24;;;;;;;;;0.00;0.00;;;;;18.20;69.06;100723.97;5045316;28;45681;-85
2021/09/19 03:24:50;;;;;;;;;0.00;0.00;;;;;17.58;69.43;100624.38;5061524;28;47447;-84
2021/09/19 03:27:15;;;;;;;;;2.25;1.00;;;;;18.14;69.22;100703.91;5061912;28;45261;-84
2021/09/19 03:29:40;;;;;;;;;0.25;0.00;;;;;18.28;69.19;100727.25;5050440;28;45453;-85
2021/09/19 03:32:06;;;;;;;;;0.00;0.00;;;;;17.68;69.32;100616.28;5048843;28;45288;-86
2021/09/19 03:34:34;;;;;;;;;0.00;0.00;;;;;18.00;68.85;100684.91;5064373;28;47531;-88
2021/09/19 03:37:00;;;;;;;;;0.00;0.00;;;;;17.87;68.77;100658.84;5065571;28;45363;-86
2021/09/19 03:39:26;;;;;;;;;0.00;0.00;;;;;17.84;68.57;100637.84;5065375;28;45522;-87
2021/09/19 03:41:51;;;;;;;;;0.50;0.00;;;;;18.14;68.32;100690.72;5044782;28;45624;-87
2021/09/19 03:44:17;;;;;;;;;0.00;0.00;;;;;18.26;67.97;100717.66;5036024;28;47293;-88
2021/09/19 03:46:42;;;;;;;;;0.00;0.00;;;;;18.30;68.21;100721.97;5029301;28;45886;-89
2021/09/19 03:49:07;;;;;;;;;0.00;0.00;;;;;18.36;67.22;100721.81;5050228;28;45291;-85
2021/09/19 03:51:33;;;;;;;;;0.00;0.00;;;;;18.27;67.38;100728.19;5083005;28;44822;-86
2021/09/19 03:53:58;;;;;;;;;0.25;0.00;;;;;18.10;67.01;100718.06;5049259;28;46994;-85
2021/09/19 03:56:24;;;;;;;;;0.00;0.00;;;;;18.09;66.62;100726.78;5031368;28;45675;-86
2021/09/19 03:58:49;;;;;;;;;1.00;0.00;;;;;18.06;65.88;100740.03;5053756;28;45633;-86
2021/09/19 04:01:15;;;;;;;;;0.00;0.00;;;;;18.02;65.68;100731.34;5040379;28;45233;-87
2021/09/19 04:03:41;;;;;;;;;0.00;0.00;;;;;17.50;65.56;100655.25;5031839;28;47059;-88
2021/09/19 04:06:06;;;;;;;;;0.00;0.00;;;;;17.63;65.53;100697.09;5039189;28;45273;-89
2021/09/19 04:08:31;;;;;;;;;0.00;0.00;;;;;17.84;65.25;100732.63;5065176;28;45205;-89
2021/09/19 04:10:57;;;;;;;;;0.00;0.00;;;;;17.69;64.91;100713.63;5046889;28;45618;-88
2021/09/19 04:13:22;;;;;;;;;0.00;0.00;;;;;17.05;65.20;100608.81;5059865;28;47021;-86
2021/09/19 04:15:47;;;;;;;;;0.00;0.00;;;;;17.37;65.19;100682.72;5062566;28;45361;-87
2021/09/19 04:18:14;;;;;;;;;0.00;0.00;;;;;17.46;64.91;100708.88;5060346;28;45654;-85
2021/09/19 04:20:40;;;;;;;;;0.00;0.00;;;;;17.62;65.16;100726.94;5057008;28;45507;-85
2021/09/19 04:23:05;;;;;;;;;0.00;0.00;;;;;17.57;65.27;100716.50;5048460;28;47120;-86
2021/09/19 04:25:31;;;;;;;;;0.75;0.00;;;;;17.62;64.92;100722.56;5045065;28;45323;-86
2021/09/19 04:27:56;;;;;;;;;0.00;0.00;;;;;17.45;65.17;100696.59;5064544;28;45417;-85
2021/09/19 04:30:21;;;;;;;;;0.00;0.00;;;;;17.04;65.32;100646.53;5068488;28;44751;-86
2021/09/19 04:33:06;;;;;;;;;0.00;0.00;;;;;17.47;64.42;100705.31;5062504;28;46955;-89
2021/09/19 04:35:34;;;;;;;;;0.00;0.00;;;;;17.66;64.54;100747.03;5055404;28;45548;-91
2021/09/19 04:38:00;;;;;;;;;0.00;0.00;;;;;17.78;64.95;100762.59;5065744;28;44796;-93
2021/09/19 04:40:25;;;;;;;;;0.00;0.00;;;;;17.62;63.97;100719.06;5066357;28;45584;-88
2021/09/19 04:42:55;;;;;;;;;0.00;0.00;;;;;17.07;64.18;100607.06;5058099;28;46471;-86
2021/09/19 04:45:26;;;;;;;;;0.00;0.00;;;;;16.79;63.81;100582.16;5057439;28;45358;-86
2021/09/19 04:47:54;;;;;;;;;2.00;0.00;;;;;17.75;64.23;100751.25;5062159;28;45519;-87
2021/09/19 04:50:27;;;;;;;;;0.00;0.00;;;;;17.05;63.56;100622.81;5054028;28;45436;-87
2021/09/19 04:53:00;;;;;;;;;0.00;0.00;;;;;16.54;64.17;100547.63;5052944;28;45513;-88
2021/09/19 04:55:26;;;;;;;;;1.00;0.00;;;;;17.57;63.82;100713.88;5061835;28;46147;-87
2021/09/19 04:57:51;;;;;;;;;0.00;0.00;;;;;17.83;63.61;100765.13;5063372;28;45484;-87
2021/09/19 05:00:16;;;;;;;;;0.00;0.00;;;;;17.82;63.57;100763.38;5061630;28;45429;-86
2021/09/19 05:02:42;;;;;;;;;0.25;0.25;;;;;17.59;63.50;100734.03;5062251;28;46841;-86
2021/09/19 05:05:08;;;;;;;;;0.00;0.00;;;;;17.86;63.70;100768.53;5059602;28;45383;-87
2021/09/19 05:07:34;;;;;;;;;0.00;0.00;;;;;17.03;63.53;100624.59;5072112;28;45525;-88
2021/09/19 05:09:59;;;;;;;;;1.25;0.00;;;;;17.56;63.29;100706.91;5050124;28;45353;-87
2021/09/19 05:12:25;;;;;;;;;0.00;0.00;;;;;17.58;63.56;100739.31;5042484;28;47360;-88
2021/09/19 05:14:53;;;;;;;;;0.00;0.00;;;;;17.40;63.80;100733.50;5043142;28;45256;-88
2021/09/19 05:17:18;;;;;;;;;0.00;0.00;;;;;17.28;63.96;100704.84;5062664;28;45554;-87
2021/09/19 05:19:44;;;;;;;;;0.00;0.00;;;;;17.62;64.10;100761.16;5062314;28;45249;-87
2021/09/19 05:22:10;;;;;;;;;0.00;0.00;;;;;17.57;63.57;100761.25;5057638;28;47023;-87
2021/09/19 05:24:35;;;;;;;;;0.00;0.00;;;;;17.21;63.69;100722.47;5053305;28;45309;-87
2021/09/19 05:27:00;;;;;;;;;0.00;0.00;;;;;16.51;63.77;100600.22;5051153;28;45545;-87
2021/09/19 05:29:26;;;;;;;;;0.00;0.00;;;;;17.07;64.01;100704.34;5062635;28;45268;-86
2021/09/19 05:31:51;;;;;;;;;0.00;0.00;;;;;17.33;63.57;100737.16;5063406;28;45226;-87
2021/09/19 05:34:17;;;;;;;;;0.50;0.00;;;;;17.00;63.79;100700.06;5061689;28;45321;-88
2021/09/19 05:36:42;;;;;;;;;0.00;0.00;;;;;16.90;64.23;100709.88;5058239;28;45502;-87
2021/09/19 05:39:08;;;;;;;;;0.00;0.00;;;;;16.35;64.35;100634.63;5059819;28;46282;-86
2021/09/19 05:41:33;;;;;;;;;2.00;1.00;;;;;17.18;64.49;100754.13;5058239;28;47193;-88
2021/09/19 05:43:59;;;;;;;;;0.00;0.00;;;;;17.34;64.15;100766.06;5071221;28;45451;-87
2021/09/19 05:46:24;;;;;;;;;0.00;0.00;;;;;16.76;64.02;100695.25;5062387;28;45518;-87
2021/09/19 05:48:50;;;;;;;;;0.00;0.00;;;;;17.05;64.04;100754.31;5066356;28;45581;-90
2021/09/19 05:51:15;;;;;;;;;0.00;0.00;;;;;16.63;64.56;100693.72;5066002;28;47654;-88
2021/09/19 05:53:41;;;;;;;;;0.00;0.00;;;;;17.17;64.17;100779.56;5057831;28;45379;-89
2021/09/19 05:56:07;;;;;;;;;0.25;0.00;;;;;16.12;64.08;100601.75;5062012;28;45450;-87
2021/09/19 06:02:08;;;;;;;;;0.00;0.00;;;;;15.78;64.03;100550.66;5015719;28;45858;-86
2021/09/19 06:05:26;;;;;;;;;;;;;;;;;;;;;
2021/09/19 06:08:17;;;;;;;;;0.00;0.00;;;;;16.79;63.63;100692.56;4973213;28;70789;-84
2021/09/19 06:10:48;;;;;;;;;0.00;0.00;;;;;17.52;63.38;100805.22;4996332;28;45546;-84
2021/09/19 06:17:23;;;;;;;;;0.00;0.00;;;;;16.52;63.18;100615.94;4968457;28;45314;-86
2021/09/19 06:19:58;;;;;;;;;0.00;0.00;;;;;16.74;63.35;100641.81;4961417;28;45796;-81
2021/09/19 06:22:35;;;;;;;;;0.00;0.00;;;;;17.41;62.88;100729.13;5021218;28;45474;-80
2021/09/19 06:25:29;;;;;;;;;0.00;0.00;;;;;17.16;62.56;100696.28;5032396;28;47056;-84
2021/09/19 06:28:05;;;;;;;;;0.00;0.00;;;;;16.51;62.15;100601.06;5019901;28;45267;-86
2021/09/19 06:30:40;;;;;;;;;0.00;0.00;;;;;17.66;62.62;100803.19;5018803;28;45585;-84
2021/09/19 06:33:06;;;;;;;;;0.00;0.00;;;;;16.62;62.46;100626.28;5020419;28;45213;-85
2021/09/19 06:35:31;;;;;;;;;1.00;1.00;;;;;17.42;62.49;100768.56;5041563;28;47409;-85
2021/09/19 06:37:57;;;;;;;;;2.00;0.75;;;;;17.59;62.49;100789.31;5062376;28;45190;-83
2021/09/19 06:40:22;;;;;;;;;0.00;0.00;;;;;17.59;62.63;100765.63;5062105;28;45666;-79
2021/09/19 06:42:48;;;;;;;;;0.25;0.00;;;;;17.74;62.25;100779.34;5060174;28;45758;-82
2021/09/19 06:45:15;;;;;;;;;0.00;0.00;;;;;17.31;62.11;100726.66;5062074;28;46683;-80
2021/09/19 06:47:42;;;;;;;;;0.00;0.00;;;;;17.23;62.08;100699.66;5070922;28;45390;-80
2021/09/19 06:50:09;;;;;;;;;0.75;0.75;;;;;17.79;62.13;100771.38;5079991;28;45398;-81
2021/09/19 06:52:35;;;;;;;;;2.00;0.00;;;;;17.81;62.26;100769.53;5059740;28;45347;-82
2021/09/19 06:55:00;;;;;;;;;0.00;0.00;;;;;17.89;61.28;100772.91;5052540;28;46201;-81
2021/09/19 06:57:25;;;;;;;;;0.00;0.00;;;;;18.10;61.87;100799.72;5057540;28;45410;-80
2021/09/19 06:59:51;;;;;;;;;0.00;0.00;;;;;17.92;61.12;100770.16;5071161;28;45260;-85
2021/09/19 07:02:16;;;;;;;;;0.00;0.00;;;;;17.83;60.95;100760.72;5068630;28;45524;-84
2021/09/19 07:04:42;;;;;;;;;0.00;0.00;;;;;17.53;60.80;100720.13;5064683;28;47076;-84
2021/09/19 07:07:07;;;;;;;;;0.25;0.25;;;;;17.90;60.85;100779.91;5066988;28;45425;-85
2021/09/19 07:09:32;;;;;;;;;0.50;0.50;;;;;18.08;60.98;100820.78;5064535;28;45200;-82
2021/09/19 07:11:58;;;;;;;;;0.75;0.00;;;;;17.92;60.75;100793.03;5063455;28;45485;-82
2021/09/19 07:14:23;;;;;;;;;0.00;0.00;;;;;18.15;60.62;100821.53;5067281;28;46709;-83
2021/09/19 07:16:49;;;;;;;;;0.00;0.00;;;;;18.09;60.50;100821.63;5066725;28;45441;-83
2021/09/19 07:19:14;;;;;;;;;0.00;0.00;;;;;18.11;60.83;100815.44;5061348;28;45558;-82
2021/09/19 07:21:40;;;;;;;;;0.00;0.00;;;;;18.05;60.35;100789.22;5064405;28;45608;-84
2021/09/19 07:24:05;;;;;;;;;0.00;0.00;;;;;18.14;60.49;100801.38;5049367;28;47262;-84
2021/09/19 07:26:30;;;;;;;;;0.00;0.00;;;;;18.44;60.11;100838.44;5075827;28;45366;-82
2021/09/19 07:28:56;;;;;;;;;0.75;0.75;;;;;18.47;60.08;100840.16;5065904;28;45758;-84
2021/09/19 07:31:21;;;;;;;;;0.00;0.00;;;;;18.23;59.78;100803.78;5066806;28;45474;-84
2021/09/19 07:33:47;;;;;;;;;0.00;0.00;;;;;18.50;60.00;100845.38;5064902;28;46442;-83
2021/09/19 07:36:14;;;;;;;;;0.00;0.00;;;;;18.16;59.68;100802.19;5059982;28;45528;-82
2021/09/19 07:38:39;;;;;;;;;0.75;0.00;;;;;18.63;59.70;100853.84;5069384;28;45317;-79
2021/09/19 07:41:05;;;;;;;;;0.75;0.75;;;;;18.50;59.38;100819.00;5082665;28;45330;-82
2021/09/19 07:43:30;;;;;;;;;0.00;0.00;;;;;18.54;58.23;100819.78;5077902;28;47130;-80
2021/09/19 07:45:56;;;;;;;;;1.25;1.25;;;;;18.61;59.00;100842.47;5073237;28;45425;-82
2021/09/19 07:48:21;;;;;;;;;0.00;0.00;;;;;18.43;59.41;100830.56;5060928;28;45522;-80
2021/09/19 07:50:56;;;;;;;;;0.75;0.00;;;;;18.37;59.78;100834.22;5061899;28;45565;-83
2021/09/19 07:53:25;;;;;;;;;0.00;0.00;;;;;18.01;60.10;100823.56;5060591;28;46495;-82
2021/09/19 07:55:51;;;;;;;;;0.50;0.50;;;;;18.17;60.20;100851.34;5055393;28;45490;-81
2021/09/19 07:58:17;;;;;;;;;1.75;0.00;;;;;18.26;59.76;100866.09;5061275;28;45505;-84
2021/09/19 08:00:42;;;;;;;;;0.00;0.00;;;;;18.11;60.01;100836.53;5055509;28;45580;-81
2021/09/19 08:03:08;;;;;;;;;0.00;0.00;;;;;17.97;60.32;100828.00;5054505;28;45766;-80
2021/09/19 08:05:33;;;;;;;;;2.00;0.00;;;;;18.13;60.46;100876.00;5048003;28;45513;-81
2021/09/19 08:07:58;;;;;;;;;0.00;0.00;;;;;18.03;60.81;100893.75;5060109;28;45283;-83
2021/09/19 08:10:24;;;;;;;;;0.25;0.25;;;;;17.64;61.13;100839.19;5062650;28;45339;-81
2021/09/19 08:12:50;;;;;;;;;0.00;0.00;;;;;18.03;60.83;100887.59;5049277;28;46136;-81
2021/09/19 08:15:17;;;;;;;;;0.00;0.00;;;;;18.03;60.54;100883.19;5072360;28;45432;-81
2021/09/19 08:17:44;;;;;;;;;0.00;0.00;;;;;17.88;60.82;100839.59;5087350;27;44757;-81
2021/09/19 08:20:11;;;;;;;;;0.00;0.00;;;;;18.21;60.63;100904.81;5068545;28;45336;-79
2021/09/19 08:22:37;;;;;;;;;0.50;0.00;;;;;18.21;60.43;100884.63;5065494;28;45491;-84
2021/09/19 08:25:06;;;;;;;;;0.00;0.00;;;;;18.05;60.41;100830.50;5064909;28;46034;-80
2021/09/19 08:27:33;;;;;;;;;0.00;0.00;;;;;18.30;60.16;100870.41;5055955;28;45312;-78
2021/09/19 08:30:44;;;;;;;;;1.00;1.00;;;;;18.23;59.74;100866.16;5054408;28;45534;-83
2021/09/19 08:33:33;;;;;;;;;0.00;0.00;;;;;18.49;60.04;100904.25;5013936;28;45450;-82
2021/09/19 08:36:06;;;;;;;;;0.00;0.00;;;;;17.29;59.90;100689.03;5038664;28;45534;-83
2021/09/19 08:38:32;;;;;;;;;0.00;0.00;;;;;17.98;59.44;100785.00;5057282;28;45978;-78
2021/09/19 08:40:57;;;;;;;;;0.00;0.00;;;;;18.93;59.28;100911.19;5059077;28;45292;-78
2021/09/19 08:43:23;;;;;;;;;0.00;0.00;;;;;18.83;59.08;100876.22;5053662;28;47175;-78
2021/09/19 08:45:49;;;;;;;;;1.00;1.00;;;;;19.05;58.76;100915.31;5061068;28;45539;-84
2021/09/19 08:48:20;;;;;;;;;0.00;0.00;;;;;18.68;58.29;100873.06;5051379;28;45437;-82
2021/09/19 08:50:50;;;;;;;;;0.00;0.00;;;;;18.34;58.60;100840.44;5061789;28;45532;-83
2021/09/19 08:53:26;;;;;;;;;1.00;1.00;;;;;18.61;58.54;100874.97;5061527;28;45499;-83
2021/09/19 08:55:51;;;;;;;;;0.00;0.00;;;;;18.62;58.16;100857.38;5059339;28;45504;-83
2021/09/19 08:58:19;;;;;;;;;0.25;0.00;;;;;19.01;58.54;100935.59;5049846;28;45558;-83
2021/09/19 09:00:49;;;;;;;;;0.00;0.00;;;;;19.08;58.42;100904.72;5058091;28;45545;-83
2021/09/19 09:03:24;;;;;;;;;0.00;0.00;;;;;18.64;57.96;100821.31;5049929;28;46327;-80
2021/09/19 09:06:06;;;;;;;;;0.00;0.00;;;;;18.34;58.12;100786.84;5055563;28;45433;-83
2021/09/19 09:08:41;;;;;;;;;1.00;1.00;;;;;17.68;58.64;100700.50;5061981;28;45466;-84
2021/09/19 09:11:07;;;;;;;;;1.00;1.00;;;;;19.11;58.73;100917.81;5060273;28;45635;-82
2021/09/19 09:13:37;;;;;;;;;0.00;0.00;;;;;18.83;58.40;100865.69;5057086;28;47348;-83
2021/09/19 09:16:15;;;;;;;;;2.00;0.75;;;;;19.13;58.47;100947.66;5058616;28;45398;-80
2021/09/19 09:18:48;;;;;;;;;0.00;0.00;;;;;18.86;58.35;100924.50;5062140;28;45402;-81
2021/09/19 09:21:25;;;;;;;;;0.00;0.00;;;;;18.90;58.63;100953.44;5061679;28;45547;-84
2021/09/19 09:24:00;;;;;;;;;0.00;0.00;;;;;18.48;58.98;100908.66;5058366;28;46105;-82
2021/09/19 09:26:43;;;;;;;;;0.00;0.00;;;;;18.27;59.15;100881.00;5061518;28;45415;-81
2021/09/19 09:29:16;;;;;;;;;2.75;1.00;;;;;18.42;59.09;100921.09;5055390;28;45322;-88
2021/09/19 09:31:50;;;;;;;;;0.00;0.00;;;;;18.34;59.50;100903.69;5059532;28;45503;-87
2021/09/19 09:34:15;;;;;;;;;0.00;0.00;;;;;18.71;59.43;100952.09;5060119;28;48290;-87
2021/09/19 09:36:55;;;;;;;;;2.00;0.00;;;;;18.71;59.85;100952.09;5061355;28;45526;-85
2021/09/19 09:39:32;;;;;;;;;0.75;0.75;;;;;18.67;59.72;100955.69;5062765;28;45363;-85
2021/09/19 09:42:18;;;;;;;;;0.00;0.00;;;;;18.56;59.83;100921.66;5060454;28;45353;-85
2021/09/19 09:44:46;;;;;;;;;0.00;0.00;;;;;18.65;60.29;100938.19;5062939;28;47575;-85
2021/09/19 09:47:28;;;;;;;;;0.00;0.00;;;;;18.92;59.80;100957.78;5067214;28;46306;-87
2021/09/19 09:49:57;;;;;;;;;0.00;0.00;;;;;18.93;60.00;100948.13;5090436;28;45346;-86
2021/09/19 09:52:25;;;;;;;;;1.75;0.00;;;;;19.01;59.70;100955.84;5083190;28;45458;-85
2021/09/19 09:55:13;;;;;;;;;0.00;0.00;;;;;18.89;59.65;100946.44;5059918;28;46916;-87
2021/09/19 09:57:41;;;;;;;;;0.00;0.00;;;;;19.08;59.83;100960.13;5061434;28;45503;-86
2021/09/19 10:00:09;;;;;;;;;0.00;0.00;;;;;18.89;59.43;100907.75;5060482;28;45461;-86
2021/09/19 10:02:38;;;;;;;;;0.50;0.50;;;;;19.06;59.37;100935.50;5072142;28;45575;-85
2021/09/19 10:05:05;;;;;;;;;0.50;0.25;;;;;19.39;59.06;100969.94;5076880;28;47522;-85
2021/09/19 10:07:31;;;;;;;;;0.00;0.00;;;;;19.52;59.29;100969.59;5061065;28;45418;-86
2021/09/19 10:09:58;;;;;;;;;0.50;0.50;;;;;19.43;58.56;100939.91;5059438;28;45344;-85
2021/09/19 10:12:23;;;;;;;;;0.00;0.00;;;;;19.36;57.91;100918.06;5060648;28;45517;-85
2021/09/19 10:14:51;;;;;;;;;0.00;0.00;;;;;19.54;57.79;100955.44;5060110;28;47887;-85
2021/09/19 10:17:22;;;;;;;;;0.00;0.00;;;;;19.44;58.12;100936.34;5060371;28;45417;-85
2021/09/19 10:19:50;;;;;;;;;0.75;0.75;;;;;19.79;57.73;100970.69;5060141;28;45261;-85
2021/09/19 10:26:58;;;;;;;;;0.00;0.00;;;;;20.08;56.76;100947.03;5006378;28;46097;-86
2021/09/19 10:29:37;;;;;;;;;0.00;0.00;;;;;19.54;56.82;100843.72;5030559;28;45719;-86
2021/09/19 10:33:04;;;;;;;;;0.25;0.00;;;;;20.59;55.95;100979.09;5061343;28;45308;-86
2021/09/19 10:39:18;;;;;;;;;0.00;0.00;;;;;20.34;55.54;100953.38;4986867;28;45484;-86
2021/09/19 10:42:10;;;;;;;;;0.00;0.00;;;;;20.49;55.36;100965.28;5047878;28;45490;-86
2021/09/19 10:44:51;;;;;;;;;0.00;0.00;;;;;20.58;55.75;100964.97;5062436;28;45430;-86
2021/09/19 10:48:14;;;;;;;;;0.00;0.00;;;;;19.68;55.26;100783.47;5060302;28;45779;-85
2021/09/19 10:51:25;;;;;;;;;0.00;0.00;;;;;20.14;54.55;100835.88;5058911;28;45473;-87
2021/09/19 10:53:54;;;;;;;;;1.00;1.00;;;;;20.77;54.96;100900.97;5041110;28;45505;-86
2021/09/19 10:56:23;;;;;;;;;0.00;0.00;;;;;20.64;53.71;100855.50;5056472;28;45643;-86
2021/09/19 10:58:55;;;;;;;;;0.00;0.00;;;;;20.63;53.76;100859.06;5059719;28;45308;-86
2021/09/19 11:01:47;;;;;;;;;0.25;0.00;;;;;20.40;53.54;100857.16;5059736;28;46304;-86
2021/09/19 11:04:50;;;;;;;;;1.00;1.00;;;;;21.09;53.66;100974.94;5062358;28;45403;-86
2021/09/19 11:07:21;;;;;;;;;0.00;0.00;;;;;20.67;54.08;100884.50;5050177;28;45427;-87
2021/09/19 11:09:46;;;;;;;;;0.00;0.00;;;;;20.55;53.67;100855.81;5060213;28;45796;-85
2021/09/19 11:12:24;;;;;;;;;0.25;0.00;;;;;21.42;53.70;100971.25;5061362;28;46823;-86
2021/09/19 11:15:05;;;;;;;;;0.00;0.00;;;;;21.17;53.64;100919.13;5059435;28;45398;-86
2021/09/19 11:17:56;;;;;;;;;2.00;0.00;;;;;21.48;52.67;100971.94;5060165;28;45455;-87
2021/09/19 11:20:39;;;;;;;;;0.00;0.00;;;;;20.77;53.55;100848.06;5060376;28;45628;-86
2021/09/19 11:34:20;;;;;;;;;0.75;0.50;;;;;21.34;53.46;100974.16;5013571;28;45572;-86
2021/09/19 11:37:19;;;;;;;;;0.00;0.00;;;;;21.17;54.06;100946.47;5064108;28;46573;-86
2021/09/19 11:39:54;;;;;;;;;0.00;0.00;;;;;20.99;53.75;100874.72;5062483;28;45416;-85
2021/09/19 11:42:25;;;;;;;;;0.00;0.00;;;;;21.69;53.94;100977.41;5062649;28;45342;-86
2021/09/19 11:44:51;;;;;;;;;1.00;0.00;;;;;21.73;53.29;101000.22;5065955;28;45429;-85
2021/09/19 11:54:54;;;;;;;;;;;;;;;;;;;;;
2021/09/19 12:10:36;;;;;;;;;0.00;0.00;;;;;22.20;51.85;100995.97;5063967;28;45443;-86
2021/09/19 12:13:20;;;;;;;;;2.50;0.00;;;;;22.01;52.33;100951.59;5045569;28;45698;-85
2021/09/19 12:15:56;;;;;;;;;1.50;0.00;;;;;21.93;52.31;100931.59;5063208;28;45511;-85
2021/09/19 12:22:53;;;;;;;;;;;;;;;;;;;;;
2021/09/19 12:26:08;;;;;;;;;;;;;;;;;;;;;
2021/09/19 12:29:24;;;;;;;;;0.50;0.50;;;;;22.43;51.45;100999.56;5064844;28;73501;-87
2021/09/19 12:32:21;;;;;;;;;0.25;0.00;;;;;21.57;50.65;100816.25;5016628;28;45264;-87
2021/09/19 12:35:33;;;;;;;;;0.00;0.00;;;;;21.66;50.79;100815.94;5067594;28;45329;-87
2021/09/19 12:38:54;;;;;;;;;0.00;0.00;;;;;22.58;50.83;100992.00;5062441;28;45473;-86
2021/09/19 12:42:01;;;;;;;;;1.00;1.00;;;;;22.58;50.98;100987.56;4965281;28;45598;-86
2021/09/19 12:55:07;;;;;;;;;2.00;1.00;;;;;22.05;51.51;100890.53;4944257;28;45529;-86
2021/09/19 12:57:46;;;;;;;;;0.00;0.00;;;;;21.43;50.92;100783.19;4944913;28;45263;-86
2021/09/19 13:00:47;;;;;;;;;;;;;;;;;;;;;
2021/09/19 13:03:26;;;;;;;;;0.00;0.00;;;;;22.06;50.90;100902.84;5056388;28;75611;-85
2021/09/19 13:06:16;;;;;;;;;0.00;0.00;;;;;22.48;50.54;100975.53;5068825;28;44679;-85
2021/09/19 13:09:01;;;;;;;;;0.50;0.50;;;;;21.33;50.00;100808.28;5070529;28;45522;-85
2021/09/19 13:11:58;;;;;;;;;;;;;;;;;;;;;
2021/09/19 13:14:49;;;;;;;;;0.00;0.00;;;;;22.47;50.25;100989.69;5056996;28;73865;-86
2021/09/19 13:17:44;;;;;;;;;0.00;0.00;;;;;21.29;50.71;100794.31;5054731;28;45240;-86
2021/09/19 13:24:22;;;;;;;;;0.00;0.00;;;;;22.03;49.86;100872.88;5059476;28;45245;-85
2021/09/19 13:27:36;;;;;;;;;1.00;0.00;;;;;21.61;50.02;100816.09;5059739;28;46884;-85